Time;durP1;ratioP1;P1;durP2;ratioP2;P2;SDS_P1;SDS_P2;PMS_P1;PMS_P2;Temp;Humidity;BMP_temperature;BMP_pressure;BME280_temperature;BME280_humidity;BME280_pressure;Samples;Min_cycle;Max_cycle;Signal;HPM_P1;HPM_P2
2023/02/25 00:01:10;;;;;;;7.75;1.52;;;;;10.10;100575.00;;;;5090595;28;20229;-77
2023/02/25 00:03:38;;;;;;;5.55;0.93;;;;;10.20;100576.00;;;;5090274;28;20255;-77
2023/02/25 00:06:06;;;;;;;5.00;0.98;;;;;10.20;100581.00;;;;5090249;28;20195;-77
2023/02/25 00:08:34;;;;;;;4.00;0.75;;;;;10.20;100583.00;;;;5088959;28;20210;-77
2023/02/25 00:11:04;;;;;;;10.95;2.30;;;;;10.20;100580.00;;;;5088384;28;20271;-77
2023/02/25 00:13:34;;;;;;;4.95;1.65;;;;;10.20;100578.00;;;;5091823;28;20670;-78
2023/02/25 00:16:03;;;;;;;5.65;1.05;;;;;10.20;100579.00;;;;5089814;28;20202;-77
2023/02/25 00:18:30;;;;;;;3.53;1.33;;;;;10.20;100579.00;;;;5090827;28;20652;-77
2023/02/25 00:20:58;;;;;;;5.38;0.82;;;;;10.20;100581.00;;;;5088382;28;20225;-77
2023/02/25 00:23:26;;;;;;;4.88;1.10;;;;;10.20;100589.00;;;;5089366;28;20197;-77
2023/02/25 00:25:59;;;;;;;7.32;0.80;;;;;10.20;100581.00;;;;5089707;28;20213;-77
2023/02/25 00:28:26;;;;;;;5.15;1.20;;;;;10.30;100588.00;;;;5091186;28;20190;-77
2023/02/25 00:30:55;;;;;;;5.78;1.20;;;;;10.30;100591.00;;;;5088849;28;20236;-77
2023/02/25 00:33:23;;;;;;;4.43;0.95;;;;;10.30;100588.00;;;;5090133;28;20206;-77
2023/02/25 00:35:50;;;;;;;5.80;0.98;;;;;10.30;100587.00;;;;5090755;28;20194;-77
2023/02/25 00:38:18;;;;;;;4.57;0.98;;;;;10.40;100586.00;;;;5089724;28;21357;-77
2023/02/25 00:40:45;;;;;;;7.90;1.08;;;;;10.40;100579.00;;;;5079489;28;20219;-77
2023/02/25 00:43:12;;;;;;;9.38;1.45;;;;;10.40;100579.00;;;;5072837;28;20197;-77
2023/02/25 00:45:40;;;;;;;5.53;0.65;;;;;10.40;100570.00;;;;5090250;28;20226;-77
2023/02/25 00:48:09;;;;;;;4.90;0.68;;;;;10.40;100587.00;;;;5089061;28;20761;-77
2023/02/25 00:50:38;;;;;;;3.55;0.75;;;;;10.50;100581.00;;;;5089984;28;20210;-77
2023/02/25 00:53:05;;;;;;;5.32;0.70;;;;;10.50;100594.00;;;;5089746;28;20207;-77
2023/02/25 00:55:33;;;;;;;1.92;0.77;;;;;10.50;100597.00;;;;5089979;28;20198;-77
2023/02/25 00:58:00;;;;;;;1.50;0.57;;;;;10.50;100604.00;;;;5089213;28;20251;-77
2023/02/25 01:00:28;;;;;;;4.00;0.70;;;;;10.50;100603.00;;;;5089544;28;20668;-77
2023/02/25 01:02:57;;;;;;;2.38;0.50;;;;;10.50;100601.00;;;;5086633;28;20198;-77
2023/02/25 01:05:26;;;;;;;3.22;0.70;;;;;10.50;100600.00;;;;5088922;28;20606;-77
2023/02/25 01:07:53;;;;;;;3.13;0.50;;;;;10.50;100607.00;;;;5088544;28;20565;-77
2023/02/25 01:10:21;;;;;;;3.22;0.50;;;;;10.50;100604.00;;;;5086626;28;20687;-77
2023/02/25 01:12:48;;;;;;;3.33;0.57;;;;;10.50;100608.00;;;;5087386;28;20210;-77
2023/02/25 01:15:16;;;;;;;4.07;0.60;;;;;10.50;100604.00;;;;5089164;28;20203;-77
2023/02/25 01:17:43;;;;;;;3.08;0.38;;;;;10.60;100611.00;;;;5088506;28;20209;-77
2023/02/25 01:20:11;;;;;;;3.65;0.75;;;;;10.60;100610.00;;;;5087854;28;20200;-77
2023/02/25 01:22:41;;;;;;;2.67;0.50;;;;;10.60;100610.00;;;;5088110;28;20221;-77
2023/02/25 01:25:12;;;;;;;7.20;0.90;;;;;10.60;100613.00;;;;5088281;28;20608;-77
2023/02/25 01:27:40;;;;;;;3.42;0.75;;;;;10.60;100611.00;;;;5088934;28;20714;-77
2023/02/25 01:30:09;;;;;;;4.10;0.68;;;;;10.60;100615.00;;;;5088762;28;20668;-77
2023/02/25 01:32:36;;;;;;;4.50;0.52;;;;;10.60;100611.00;;;;5088334;28;20209;-77
2023/02/25 01:35:04;;;;;;;1.90;0.45;;;;;10.70;100615.00;;;;5086884;28;20190;-77
2023/02/25 01:37:31;;;;;;;2.15;0.73;;;;;10.70;100617.00;;;;5089003;28;20209;-77
2023/02/25 01:39:59;;;;;;;3.47;0.75;;;;;10.70;100615.00;;;;5088816;28;20194;-77
2023/02/25 01:42:27;;;;;;;2.70;0.50;;;;;10.70;100609.00;;;;5087315;28;20237;-77
2023/02/25 01:45:28;;;;;;;10.82;0.90;;;;;10.60;100611.00;;;;5086552;28;20579;-77
2023/02/25 01:48:10;;;;;;;4.05;0.47;;;;;10.70;100614.00;;;;5086720;28;20221;-77
2023/02/25 01:50:43;;;;;;;4.85;0.93;;;;;10.60;100622.00;;;;5089053;28;20194;-77
2023/02/25 01:53:11;;;;;;;3.67;0.75;;;;;10.60;100616.00;;;;5087880;28;20220;-77
2023/02/25 01:55:42;;;;;;;6.82;0.80;;;;;10.60;100625.00;;;;5088514;28;20194;-77
2023/02/25 01:58:09;;;;;;;4.18;0.82;;;;;10.60;100617.00;;;;5083207;28;20199;-77
2023/02/25 02:00:38;;;;;;;9.77;1.33;;;;;10.50;100620.00;;;;5089244;28;20213;-78
2023/02/25 02:03:14;;;;;;;2.90;0.88;;;;;10.50;100602.00;;;;5086503;28;20228;-77
2023/02/25 02:05:53;;;;;;;6.80;1.35;;;;;10.40;100602.00;;;;5087764;28;20198;-77
2023/02/25 02:08:21;;;;;;;2.72;0.77;;;;;10.40;100600.00;;;;5086498;28;20194;-77
2023/02/25 02:10:50;;;;;;;3.67;0.50;;;;;10.40;100596.00;;;;5077823;28;20796;-77
2023/02/25 02:13:18;;;;;;;5.18;1.30;;;;;10.30;100597.00;;;;5086734;28;20220;-77
2023/02/25 02:15:52;;;;;;;6.03;1.15;;;;;10.30;100605.00;;;;5087391;28;20206;-77
2023/02/25 02:18:21;;;;;;;5.00;1.13;;;;;10.30;100602.00;;;;5085950;28;20664;-77
2023/02/25 02:20:59;;;;;;;3.08;1.00;;;;;10.20;100602.00;;;;5075401;28;20201;-77
2023/02/25 02:24:07;;;;;;;4.30;0.73;;;;;10.20;100613.00;;;;5085805;28;20206;-77
2023/02/25 02:27:02;;;;;;;2.55;0.35;;;;;10.20;100605.00;;;;5084637;28;20554;-77
2023/02/25 02:30:08;;;;;;;2.55;0.30;;;;;10.10;100599.00;;;;5072675;28;20587;-77
2023/02/25 02:32:41;;;;;;;4.38;0.80;;;;;10.20;100600.00;;;;5081102;28;20195;-77
2023/02/25 02:35:18;;;;;;;2.40;0.60;;;;;10.20;100602.00;;;;5089386;28;20191;-77
2023/02/25 02:37:53;;;;;;;1.38;0.30;;;;;10.20;100606.00;;;;5086643;28;20209;-77
2023/02/25 02:40:37;;;;;;;3.38;0.80;;;;;10.20;100596.00;;;;5088082;28;20205;-77
2023/02/25 02:43:20;;;;;;;1.92;0.35;;;;;10.30;100607.00;;;;5086701;28;20226;-77
2023/02/25 02:45:51;;;;;;;2.75;0.57;;;;;10.30;100605.00;;;;5083542;28;20194;-77
2023/02/25 02:48:24;;;;;;;5.32;0.77;;;;;10.30;100605.00;;;;5077640;28;20572;-76
2023/02/25 02:50:56;;;;;;;3.72;0.75;;;;;10.30;100605.00;;;;5086173;28;20201;-77
2023/02/25 02:53:28;;;;;;;3.65;0.82;;;;;10.30;100608.00;;;;5087154;28;20864;-77
2023/02/25 02:55:59;;;;;;;5.05;1.08;;;;;10.30;100609.00;;;;5078187;28;20202;-77
2023/02/25 02:58:29;;;;;;;6.50;1.25;;;;;10.30;100611.00;;;;5082835;28;20206;-77
2023/02/25 03:01:01;;;;;;;6.45;1.08;;;;;10.20;100621.00;;;;5086531;28;20586;-77
2023/02/25 03:03:36;;;;;;;4.80;0.80;;;;;10.20;100617.00;;;;5085881;28;20955;-76
2023/02/25 03:06:07;;;;;;;4.95;0.80;;;;;10.20;100614.00;;;;5086778;28;20565;-77
2023/02/25 03:08:39;;;;;;;6.20;0.90;;;;;10.30;100609.00;;;;5072826;28;20198;-77
2023/02/25 03:11:07;;;;;;;4.55;0.85;;;;;10.30;100605.00;;;;5085712;28;20206;-77
2023/02/25 03:13:34;;;;;;;4.53;0.70;;;;;10.30;100604.00;;;;5086530;28;20198;-77
2023/02/25 03:16:05;;;;;;;6.80;1.25;;;;;10.20;100599.00;;;;5086500;28;20194;-77
2023/02/25 03:18:40;;;;;;;7.75;1.02;;;;;10.20;100612.00;;;;5085987;28;20198;-77
2023/02/25 03:21:14;;;;;;;4.40;0.93;;;;;10.20;100615.00;;;;5086943;28;20682;-77
2023/02/25 03:23:45;;;;;;;6.53;1.00;;;;;10.30;100610.00;;;;5085069;28;20205;-77
2023/02/25 03:26:20;;;;;;;5.20;0.70;;;;;10.30;100618.00;;;;5086800;28;20198;-76
2023/02/25 03:28:47;;;;;;;3.70;0.88;;;;;10.30;100626.00;;;;5085602;28;20197;-77
2023/02/25 03:31:21;;;;;;;5.93;1.25;;;;;10.30;100617.00;;;;5085799;28;20205;-75
2023/02/25 03:33:55;;;;;;;6.50;1.05;;;;;10.30;100623.00;;;;5087529;28;20194;-75
2023/02/25 03:36:28;;;;;;;6.57;0.98;;;;;10.30;100622.00;;;;5087043;28;20198;-75
2023/02/25 03:38:59;;;;;;;8.18;1.23;;;;;10.30;100620.00;;;;5081538;28;20251;-75
2023/02/25 03:41:33;;;;;;;6.70;1.33;;;;;10.30;100629.00;;;;5086100;28;20198;-75
2023/02/25 03:44:02;;;;;;;5.03;1.10;;;;;10.40;100626.00;;;;5086504;28;20650;-75
2023/02/25 03:46:31;;;;;;;8.90;1.23;;;;;10.40;100618.00;;;;5087178;28;20199;-75
2023/02/25 03:49:01;;;;;;;6.75;1.20;;;;;10.40;100626.00;;;;5084642;28;21297;-75
2023/02/25 03:51:33;;;;;;;6.40;0.98;;;;;10.30;100628.00;;;;5085295;28;20849;-75
2023/02/25 03:54:00;;;;;;;11.15;1.25;;;;;10.40;100628.00;;;;5076393;28;20257;-75
2023/02/25 03:56:28;;;;;;;3.60;0.95;;;;;10.30;100634.00;;;;5087300;28;20292;-75
2023/02/25 03:58:56;;;;;;;3.83;0.93;;;;;10.30;100633.00;;;;5084875;28;20198;-75
2023/02/25 04:01:27;;;;;;;4.05;1.02;;;;;10.30;100635.00;;;;5088543;28;20201;-75
2023/02/25 04:03:54;;;;;;;5.75;1.20;;;;;10.30;100630.00;;;;5076459;28;20198;-75
2023/02/25 04:06:24;;;;;;;4.82;1.10;;;;;10.20;100634.00;;;;5087649;28;20198;-75
2023/02/25 04:08:52;;;;;;;4.43;1.00;;;;;10.20;100640.00;;;;5083676;28;20201;-75
2023/02/25 04:11:19;;;;;;;5.85;1.50;;;;;10.20;100628.00;;;;5086367;28;20668;-75
2023/02/25 04:13:46;;;;;;;4.63;1.08;;;;;10.20;100630.00;;;;5085599;28;20652;-75
2023/02/25 04:16:13;;;;;;;6.43;1.38;;;;;10.20;100634.00;;;;5087960;28;20198;-75
2023/02/25 04:18:41;;;;;;;4.60;0.88;;;;;10.10;100634.00;;;;5083948;28;20205;-75
2023/02/25 04:21:08;;;;;;;6.85;1.58;;;;;10.10;100648.00;;;;5091066;28;20229;-75
2023/02/25 04:23:38;;;;;;;6.22;1.00;;;;;10.00;100645.00;;;;5088556;28;20312;-75
2023/02/25 04:26:05;;;;;;;8.93;1.02;;;;;10.00;100654.00;;;;5086332;28;20202;-75
2023/02/25 04:28:32;;;;;;;5.03;1.15;;;;;10.00;100650.00;;;;5083454;28;20194;-75
2023/02/25 04:31:00;;;;;;;4.22;0.88;;;;;10.00;100661.00;;;;5089559;28;20203;-75
2023/02/25 04:33:27;;;;;;;7.20;1.23;;;;;10.00;100655.00;;;;5088742;28;20213;-75
2023/02/25 04:35:54;;;;;;;2.20;0.60;;;;;10.00;100659.00;;;;5091289;28;20194;-75
2023/02/25 04:38:22;;;;;;;5.72;1.23;;;;;9.90;100663.00;;;;5082539;28;20187;-75
2023/02/25 04:40:52;;;;;;;6.95;1.80;;;;;9.90;100654.00;;;;5088337;28;20190;-75
2023/02/25 04:43:20;;;;;;;6.00;0.65;;;;;9.90;100659.00;;;;5087380;28;20741;-75
2023/02/25 04:45:48;;;;;;;5.15;1.20;;;;;9.90;100664.00;;;;5088684;28;20202;-75
2023/02/25 04:48:15;;;;;;;4.82;0.88;;;;;9.90;100659.00;;;;5082311;28;20271;-75
2023/02/25 04:50:42;;;;;;;5.55;1.08;;;;;9.90;100662.00;;;;5088845;28;20713;-75
2023/02/25 04:53:10;;;;;;;5.40;0.90;;;;;9.80;100663.00;;;;5089301;28;20199;-75
2023/02/25 04:55:37;;;;;;;5.78;1.70;;;;;9.80;100672.00;;;;5084360;28;20213;-75
2023/02/25 04:58:05;;;;;;;4.13;1.05;;;;;9.80;100675.00;;;;5088152;28;20195;-75
2023/02/25 05:00:33;;;;;;;6.30;0.75;;;;;9.80;100677.00;;;;5088792;28;20203;-74
2023/02/25 05:03:00;;;;;;;7.75;1.20;;;;;9.80;100676.00;;;;5087708;28;20218;-75
2023/02/25 05:05:27;;;;;;;8.57;1.13;;;;;9.70;100671.00;;;;5090337;28;20667;-75
2023/02/25 05:07:55;;;;;;;3.83;0.85;;;;;9.70;100665.00;;;;5090582;28;20209;-75
2023/02/25 05:10:22;;;;;;;4.05;1.00;;;;;9.70;100669.00;;;;5080775;28;20199;-75
2023/02/25 05:12:49;;;;;;;3.17;0.93;;;;;9.70;100666.00;;;;5087904;28;20566;-74
2023/02/25 05:15:18;;;;;;;2.17;0.88;;;;;9.70;100664.00;;;;5087924;28;20648;-74
2023/02/25 05:17:45;;;;;;;5.57;0.93;;;;;9.70;100666.00;;;;5090287;28;20198;-75
2023/02/25 05:20:12;;;;;;;6.28;1.48;;;;;9.70;100664.00;;;;5084732;28;20226;-75
2023/02/25 05:22:40;;;;;;;5.32;1.02;;;;;9.70;100663.00;;;;5088886;28;20225;-75
2023/02/25 05:25:10;;;;;;;5.15;1.50;;;;;9.70;100658.00;;;;5089689;28;20205;-75
2023/02/25 05:27:37;;;;;;;5.20;0.90;;;;;9.70;100663.00;;;;5085764;28;20291;-75
2023/02/25 05:30:05;;;;;;;4.28;1.48;;;;;9.70;100655.00;;;;5087629;28;20199;-75
2023/02/25 05:32:34;;;;;;;5.07;1.10;;;;;9.70;100658.00;;;;5086820;28;20195;-75
2023/02/25 05:35:01;;;;;;;10.45;1.83;;;;;9.70;100657.00;;;;5088743;28;20584;-75
2023/02/25 05:37:28;;;;;;;3.50;1.23;;;;;9.70;100665.00;;;;5089143;28;20194;-75
2023/02/25 05:39:57;;;;;;;5.22;1.30;;;;;9.70;100674.00;;;;5085856;28;20194;-75
2023/02/25 05:42:24;;;;;;;6.78;1.38;;;;;9.80;100672.00;;;;5087549;28;20226;-75
2023/02/25 05:44:51;;;;;;;2.97;0.68;;;;;9.80;100671.00;;;;5088683;28;20213;-75
2023/02/25 05:47:19;;;;;;;4.85;1.30;;;;;9.80;100668.00;;;;5087405;28;20214;-75
2023/02/25 05:49:47;;;;;;;14.45;1.85;;;;;9.80;100669.00;;;;5085581;28;20198;-75
2023/02/25 05:52:14;;;;;;;5.30;0.88;;;;;9.80;100667.00;;;;5072177;28;20206;-75
2023/02/25 05:54:42;;;;;;;5.63;1.05;;;;;9.90;100674.00;;;;5086976;28;20194;-75
2023/02/25 05:57:10;;;;;;;4.72;0.93;;;;;9.90;100679.00;;;;5074368;28;20195;-75
2023/02/25 05:59:37;;;;;;;6.07;1.20;;;;;9.90;100668.00;;;;5088477;28;20217;-76
2023/02/25 06:02:04;;;;;;;5.70;1.50;;;;;9.90;100676.00;;;;5085672;28;20217;-75
2023/02/25 06:04:32;;;;;;;5.60;1.10;;;;;9.90;100670.00;;;;5087187;28;20216;-76
2023/02/25 06:07:02;;;;;;;4.28;0.75;;;;;9.90;100675.00;;;;5086520;28;20576;-75
2023/02/25 06:09:30;;;;;;;7.43;1.40;;;;;9.90;100671.00;;;;5084907;28;20205;-75
2023/02/25 06:11:58;;;;;;;5.35;1.55;;;;;9.90;100672.00;;;;5085240;28;20351;-75
2023/02/25 06:14:25;;;;;;;4.97;1.33;;;;;9.90;100684.00;;;;5086715;28;20814;-75
2023/02/25 06:16:55;;;;;;;2.85;1.20;;;;;9.90;100686.00;;;;5071803;28;20195;-75
2023/02/25 06:19:22;;;;;;;5.57;1.15;;;;;9.90;100695.00;;;;5085586;28;20557;-75
2023/02/25 06:21:50;;;;;;;4.72;1.27;;;;;9.90;100700.00;;;;5087312;28;20202;-75
2023/02/25 06:24:18;;;;;;;5.65;1.20;;;;;9.90;100696.00;;;;5087566;28;20222;-75
2023/02/25 06:26:45;;;;;;;5.70;0.82;;;;;9.90;100695.00;;;;5089343;28;20198;-75
2023/02/25 06:29:13;;;;;;;4.95;1.17;;;;;9.90;100699.00;;;;5081428;28;20195;-76
2023/02/25 06:31:40;;;;;;;8.45;0.93;;;;;9.80;100700.00;;;;5079015;28;20191;-75
2023/02/25 06:34:08;;;;;;;6.38;1.08;;;;;9.80;100703.00;;;;5080035;28;20566;-75
2023/02/25 06:36:35;;;;;;;3.25;0.60;;;;;9.80;100699.00;;;;5076331;28;20191;-76
2023/02/25 06:39:02;;;;;;;5.47;1.10;;;;;9.80;100704.00;;;;5081566;28;20205;-76
2023/02/25 06:41:31;;;;;;;5.88;1.20;;;;;9.80;100705.00;;;;5078172;28;20211;-76
2023/02/25 06:43:58;;;;;;;6.72;1.88;;;;;9.80;100713.00;;;;5084404;28;20448;-76
2023/02/25 06:46:26;;;;;;;7.43;1.08;;;;;9.80;100713.00;;;;5088931;28;20190;-75
2023/02/25 06:48:54;;;;;;;5.68;1.00;;;;;9.90;100713.00;;;;5087206;28;20686;-77
2023/02/25 06:51:22;;;;;;;6.22;1.50;;;;;9.90;100719.00;;;;5086685;28;20613;-77
2023/02/25 06:53:51;;;;;;;11.93;1.15;;;;;9.90;100716.00;;;;5087749;28;20209;-78
2023/02/25 06:56:20;;;;;;;4.03;0.75;;;;;9.90;100724.00;;;;5086048;28;20285;-78
2023/02/25 06:58:51;;;;;;;8.65;1.30;;;;;9.90;100715.00;;;;5084849;28;20224;-77
2023/02/25 07:01:18;;;;;;;2.90;0.82;;;;;9.90;100724.00;;;;5086827;28;20194;-77
2023/02/25 07:03:46;;;;;;;5.72;1.20;;;;;9.90;100731.00;;;;5086786;28;20708;-77
2023/02/25 07:06:14;;;;;;;6.05;1.05;;;;;9.90;100743.00;;;;5081999;28;20189;-77
2023/02/25 07:08:42;;;;;;;5.38;0.80;;;;;10.00;100734.00;;;;5086275;28;20271;-77
2023/02/25 07:11:28;;;;;;;3.28;0.82;;;;;9.90;100738.00;;;;5087930;28;20195;-77
2023/02/25 07:13:57;;;;;;;5.82;1.27;;;;;10.00;100746.00;;;;5082911;28;20194;-77
2023/02/25 07:16:24;;;;;;;4.85;1.10;;;;;10.10;100754.00;;;;5072761;28;20217;-77
2023/02/25 07:18:52;;;;;;;6.13;1.40;;;;;10.10;100755.00;;;;5086956;28;20595;-77
2023/02/25 07:21:20;;;;;;;8.18;1.58;;;;;10.20;100747.00;;;;5088085;28;20187;-77
2023/02/25 07:23:47;;;;;;;9.00;1.58;;;;;10.20;100765.00;;;;5087557;28;20222;-77
2023/02/25 07:26:15;;;;;;;4.60;1.13;;;;;10.20;100762.00;;;;5088478;28;20194;-77
2023/02/25 07:28:43;;;;;;;5.47;1.40;;;;;10.20;100761.00;;;;5088645;28;20195;-77
2023/02/25 07:31:14;;;;;;;6.82;1.80;;;;;10.30;100767.00;;;;5088116;28;20206;-77
2023/02/25 07:33:41;;;;;;;9.45;1.70;;;;;10.30;100772.00;;;;5087891;28;20194;-77
2023/02/25 07:36:11;;;;;;;5.57;1.73;;;;;10.40;100785.00;;;;5086415;28;20683;-77
2023/02/25 07:38:38;;;;;;;6.20;1.10;;;;;10.50;100790.00;;;;5086331;28;20202;-77
2023/02/25 07:41:06;;;;;;;11.15;1.67;;;;;10.50;100778.00;;;;5084790;28;20199;-77
2023/02/25 07:43:34;;;;;;;7.97;2.15;;;;;10.60;100782.00;;;;5087463;28;20228;-77
2023/02/25 07:46:02;;;;;;;10.55;1.50;;;;;10.60;100777.00;;;;5087064;28;20206;-77
2023/02/25 07:48:30;;;;;;;3.97;1.05;;;;;10.70;100774.00;;;;5085775;28;20754;-77
2023/02/25 07:51:05;;;;;;;5.57;1.75;;;;;10.70;100778.00;;;;5087257;28;20213;-77
2023/02/25 07:53:32;;;;;;;8.35;1.17;;;;;10.80;100784.00;;;;5090738;28;20201;-77
2023/02/25 07:56:00;;;;;;;4.78;1.15;;;;;10.80;100793.00;;;;5089098;28;21010;-77
2023/02/25 07:58:28;;;;;;;4.82;1.00;;;;;10.90;100793.00;;;;5088784;28;20283;-77
2023/02/25 08:00:55;;;;;;;5.68;0.93;;;;;10.90;100791.00;;;;5080595;28;20262;-77
2023/02/25 08:03:23;;;;;;;7.45;1.45;;;;;11.00;100785.00;;;;5090783;28;20229;-75
2023/02/25 08:05:56;;;;;;;3.17;0.93;;;;;11.00;100796.00;;;;5089062;28;20221;-77
2023/02/25 08:08:23;;;;;;;3.08;0.93;;;;;11.10;100798.00;;;;5090111;28;20194;-77
2023/02/25 08:10:51;;;;;;;4.53;1.58;;;;;11.10;100799.00;;;;5091117;28;20198;-77
2023/02/25 08:13:18;;;;;;;3.40;0.80;;;;;11.10;100801.00;;;;5087792;28;20692;-76
2023/02/25 08:15:46;;;;;;;7.70;1.58;;;;;11.20;100809.00;;;;5091278;28;20202;-77
2023/02/25 08:18:13;;;;;;;5.25;1.00;;;;;11.20;100815.00;;;;5090088;28;20195;-76
2023/02/25 08:20:45;;;;;;;4.72;1.15;;;;;11.20;100808.00;;;;5085317;28;20214;-76
2023/02/25 08:23:14;;;;;;;5.40;1.48;;;;;11.30;100815.00;;;;5091006;28;20564;-76
2023/02/25 08:25:41;;;;;;;7.25;0.77;;;;;11.30;100817.00;;;;5089380;28;20198;-76
2023/02/25 08:28:09;;;;;;;4.40;1.05;;;;;11.30;100801.00;;;;5090631;28;20571;-76
2023/02/25 08:30:36;;;;;;;5.97;1.45;;;;;11.30;100811.00;;;;5087468;28;20707;-76
2023/02/25 08:33:04;;;;;;;6.70;1.40;;;;;11.40;100809.00;;;;5090462;28;20664;-76
2023/02/25 08:35:31;;;;;;;4.03;1.30;;;;;11.40;100815.00;;;;5089972;28;20198;-76
2023/02/25 08:37:59;;;;;;;6.40;1.60;;;;;11.40;100813.00;;;;5086990;28;20238;-76
2023/02/25 08:40:27;;;;;;;7.28;1.25;;;;;11.40;100821.00;;;;5090035;28;20198;-76
2023/02/25 08:42:55;;;;;;;8.30;0.90;;;;;11.50;100822.00;;;;5082329;28;20206;-76
2023/02/25 08:45:22;;;;;;;4.35;0.77;;;;;11.50;100814.00;;;;5090120;28;20692;-76
2023/02/25 08:47:49;;;;;;;5.00;1.52;;;;;11.60;100819.00;;;;5090814;28;20592;-76
2023/02/25 08:50:17;;;;;;;3.03;0.73;;;;;11.60;100817.00;;;;5088958;28;20662;-76
2023/02/25 08:52:45;;;;;;;3.72;0.90;;;;;11.70;100822.00;;;;5087171;28;20678;-76
2023/02/25 08:55:13;;;;;;;3.20;0.85;;;;;11.70;100830.00;;;;5087565;28;20575;-76
2023/02/25 08:57:42;;;;;;;3.75;0.90;;;;;11.70;100827.00;;;;5088333;28;20252;-76
2023/02/25 09:00:13;;;;;;;3.83;0.80;;;;;11.80;100832.00;;;;5088724;28;20198;-76
2023/02/25 09:02:41;;;;;;;2.55;0.65;;;;;11.80;100827.00;;;;5090517;28;20248;-76
2023/02/25 09:05:09;;;;;;;7.15;0.85;;;;;11.80;100831.00;;;;5088648;28;20222;-76
2023/02/25 09:07:37;;;;;;;6.32;1.38;;;;;11.80;100837.00;;;;5090873;28;20201;-75
2023/02/25 09:10:06;;;;;;;3.42;0.70;;;;;11.90;100846.00;;;;5087418;28;20198;-76
2023/02/25 09:12:35;;;;;;;4.28;1.05;;;;;11.90;100850.00;;;;5082780;28;20229;-76
2023/02/25 09:15:04;;;;;;;2.40;0.75;;;;;11.90;100867.00;;;;5082179;28;20201;-76
2023/02/25 09:17:31;;;;;;;5.20;1.33;;;;;12.00;100874.00;;;;5077039;28;20207;-75
2023/02/25 09:20:00;;;;;;;4.43;0.73;;;;;12.00;100880.00;;;;5072246;28;20436;-75
2023/02/25 09:22:27;;;;;;;5.57;0.68;;;;;12.00;100888.00;;;;5088922;28;20308;-76
2023/02/25 09:24:54;;;;;;;5.28;1.38;;;;;12.00;100891.00;;;;5088208;28;20249;-75
2023/02/25 09:27:22;;;;;;;2.75;0.50;;;;;12.00;100896.00;;;;5079089;28;20198;-76
2023/02/25 09:29:49;;;;;;;4.03;1.08;;;;;12.00;100900.00;;;;5085995;28;20660;-75
2023/02/25 09:32:19;;;;;;;4.70;1.42;;;;;12.00;100899.00;;;;5087644;28;20683;-75
2023/02/25 09:34:48;;;;;;;7.43;0.95;;;;;12.10;100902.00;;;;5081764;28;20210;-76
2023/02/25 09:37:15;;;;;;;5.10;0.90;;;;;12.10;100914.00;;;;5086184;28;20291;-76
2023/02/25 09:39:42;;;;;;;3.45;0.70;;;;;12.10;100913.00;;;;5083090;28;20201;-76
2023/02/25 09:42:13;;;;;;;2.25;0.68;;;;;12.10;100915.00;;;;5089115;28;20194;-75
2023/02/25 09:44:44;;;;;;;4.78;1.05;;;;;12.10;100905.00;;;;5086760;28;20229;-76
2023/02/25 09:47:18;;;;;;;4.38;0.80;;;;;12.10;100915.00;;;;5084106;28;20222;-75
2023/02/25 09:49:48;;;;;;;2.50;0.77;;;;;12.20;100923.00;;;;5086683;28;20206;-76
2023/02/25 09:52:21;;;;;;;3.83;0.60;;;;;12.20;100913.00;;;;5088734;28;20194;-76
2023/02/25 09:54:54;;;;;;;1.58;0.82;;;;;12.20;100913.00;;;;5087256;28;20205;-75
2023/02/25 09:57:22;;;;;;;5.60;1.05;;;;;12.30;100932.00;;;;5087449;28;20202;-76
2023/02/25 09:59:53;;;;;;;1.02;0.50;;;;;12.30;100927.00;;;;5088217;28;20229;-75
2023/02/25 10:02:30;;;;;;;4.47;0.45;;;;;12.30;100949.00;;;;5085405;28;20699;-76
2023/02/25 10:05:13;;;;;;;3.50;0.63;;;;;12.20;100947.00;;;;5085787;28;20236;-76
2023/02/25 10:07:51;;;;;;;6.78;0.93;;;;;12.20;100925.00;;;;5087483;28;20288;-76
2023/02/25 10:10:26;;;;;;;5.95;1.10;;;;;12.20;100939.00;;;;5088373;28;20217;-76
2023/02/25 10:13:02;;;;;;;2.28;0.38;;;;;12.20;100942.00;;;;5077497;28;20214;-76
2023/02/25 10:15:38;;;;;;;3.45;0.80;;;;;12.20;100952.00;;;;5085278;28;20202;-77
2023/02/25 10:18:22;;;;;;;1.75;0.40;;;;;12.20;100947.00;;;;5073227;28;20206;-75
2023/02/25 10:21:00;;;;;;;3.58;0.95;;;;;12.30;100947.00;;;;5085671;28;20202;-76
2023/02/25 10:23:43;;;;;;;2.85;0.60;;;;;12.30;100949.00;;;;5082358;28;20209;-75
2023/02/25 10:26:16;;;;;;;3.85;0.60;;;;;12.40;100954.00;;;;5088472;28;20251;-75
2023/02/25 10:28:47;;;;;;;2.40;0.95;;;;;12.50;100964.00;;;;5086086;28;20285;-76
2023/02/25 10:31:18;;;;;;;1.63;0.57;;;;;12.60;100962.00;;;;5084148;28;20947;-75
2023/02/25 10:33:49;;;;;;;4.32;1.00;;;;;12.70;100974.00;;;;5083108;28;20267;-76
2023/02/25 10:36:18;;;;;;;3.75;0.50;;;;;12.80;100967.00;;;;5088506;28;20197;-76
2023/02/25 10:38:49;;;;;;;3.20;0.55;;;;;13.00;100967.00;;;;5084852;28;20198;-76
2023/02/25 10:41:17;;;;;;;1.77;0.40;;;;;13.10;100971.00;;;;5087813;28;20255;-76
2023/02/25 10:43:45;;;;;;;2.63;0.60;;;;;13.30;100975.00;;;;5085838;28;20202;-76
2023/02/25 10:46:17;;;;;;;1.50;0.43;;;;;13.40;100978.00;;;;5085570;28;20191;-76
2023/02/25 10:48:53;;;;;;;2.85;0.90;;;;;13.50;100983.00;;;;5086142;28;20198;-76
2023/02/25 10:51:20;;;;;;;2.83;0.40;;;;;13.60;100987.00;;;;5077727;28;20681;-75
2023/02/25 10:54:04;;;;;;;3.92;0.60;;;;;13.60;100990.00;;;;5080010;28;20296;-75
2023/02/25 10:56:39;;;;;;;3.35;0.45;;;;;13.70;100990.00;;;;5066223;28;20671;-75
2023/02/25 10:59:08;;;;;;;3.92;0.35;;;;;13.70;100992.00;;;;5085283;28;20290;-75
2023/02/25 11:01:38;;;;;;;6.10;0.70;;;;;13.80;100997.00;;;;5089030;28;20198;-75
2023/02/25 11:04:13;;;;;;;2.97;0.68;;;;;13.80;100992.00;;;;5088076;28;20788;-75
2023/02/25 11:06:42;;;;;;;5.05;0.43;;;;;13.90;100991.00;;;;5086253;28;20201;-75
2023/02/25 11:09:29;;;;;;;4.65;0.63;;;;;13.90;100974.00;;;;5084668;28;20198;-75
2023/02/25 11:11:59;;;;;;;3.25;1.13;;;;;14.00;101003.00;;;;5087652;28;20210;-77
2023/02/25 11:14:28;;;;;;;2.33;0.70;;;;;14.00;101008.00;;;;5068594;28;20253;-77
2023/02/25 11:17:03;;;;;;;2.65;0.63;;;;;13.90;101018.00;;;;5075993;28;20202;-76
2023/02/25 11:19:36;;;;;;;2.30;0.45;;;;;13.80;101022.00;;;;5085608;28;20204;-76
2023/02/25 11:22:10;;;;;;;1.02;0.32;;;;;13.70;101017.00;;;;5087350;28;20194;-76
2023/02/25 11:24:38;;;;;;;3.05;0.55;;;;;13.60;101015.00;;;;5087042;28;20701;-76
2023/02/25 11:27:08;;;;;;;2.35;0.40;;;;;13.40;101028.00;;;;5087974;28;20205;-76
2023/02/25 11:29:38;;;;;;;1.20;0.38;;;;;13.30;101049.00;;;;5090802;28;20198;-76
2023/02/25 11:32:12;;;;;;;2.40;0.52;;;;;13.10;101030.00;;;;5082172;28;20201;-76
2023/02/25 11:34:48;;;;;;;1.90;0.57;;;;;13.00;101034.00;;;;5091123;28;20206;-76
2023/02/25 11:37:34;;;;;;;1.02;0.20;;;;;12.90;101037.00;;;;5091467;28;20197;-77
2023/02/25 11:40:01;;;;;;;2.15;0.40;;;;;12.90;101040.00;;;;5086085;28;20656;-76
2023/02/25 11:42:30;;;;;;;1.52;0.40;;;;;12.90;101044.00;;;;5084348;28;20198;-75
2023/02/25 11:45:00;;;;;;;4.28;0.52;;;;;12.80;101050.00;;;;5088521;28;20245;-76
2023/02/25 11:47:28;;;;;;;2.85;0.65;;;;;12.90;101044.00;;;;5085224;28;20700;-76
2023/02/25 11:50:10;;;;;;;5.65;0.52;;;;;12.80;101038.00;;;;5078852;28;20734;-76
2023/02/25 11:52:43;;;;;;;0.63;0.28;;;;;12.80;101027.00;;;;5083277;28;20199;-76
2023/02/25 11:55:20;;;;;;;1.77;0.55;;;;;12.90;101031.00;;;;5086128;28;20210;-75
2023/02/25 11:58:02;;;;;;;4.03;0.75;;;;;13.00;101034.00;;;;5086780;28;20201;-76
2023/02/25 12:00:35;;;;;;;3.00;0.43;;;;;13.10;101035.00;;;;5086282;28;20202;-76
2023/02/25 12:03:35;;;;;;;2.05;0.77;;;;;13.20;101027.00;;;;5085784;28;20205;-76
2023/02/25 12:06:14;;;;;;;2.78;0.80;;;;;13.30;101037.00;;;;5086455;28;20226;-75
2023/02/25 12:09:01;;;;;;;2.72;0.82;;;;;13.30;101030.00;;;;5084025;28;20190;-76
2023/02/25 12:12:00;;;;;;;1.40;0.60;;;;;13.40;101023.00;;;;5088463;28;20194;-76
2023/02/25 12:15:06;;;;;;;3.05;0.50;;;;;13.40;101032.00;;;;5074667;28;20549;-76
2023/02/25 12:18:09;;;;;;;3.63;1.15;;;;;13.30;101037.00;;;;5082106;28;20731;-77
2023/02/25 12:21:13;;;;;;;3.85;0.60;;;;;13.30;101030.00;;;;5089268;28;20701;-76
2023/02/25 12:24:12;;;;;;;1.92;0.52;;;;;13.30;101031.00;;;;5090199;28;20208;-76
2023/02/25 12:27:02;;;;;;;3.58;0.70;;;;;13.40;101027.00;;;;5070496;28;20199;-75
2023/02/25 12:29:52;;;;;;;2.92;0.73;;;;;13.40;101027.00;;;;5086808;28;20210;-75